Time;durP1;ratioP1;P1;durP2;ratioP2;P2;SDS_P1;SDS_P2;PMS_P1;PMS_P2;Temp;Humidity;BMP_temperature;BMP_pressure;BME280_temperature;BME280_humidity;BME280_pressure;Samples;Min_cycle;Max_cycle;Signal;HPM_P1;HPM_P2
2022/07/01 00:00:41;;;;;;;17.55;15.82;;;;;;;23.24;100.00;99137.00;5092052;28;20064;-79
2022/07/01 00:03:07;;;;;;;17.33;15.50;;;;;;;23.16;100.00;99128.00;5091895;28;20482;-79
2022/07/01 00:05:32;;;;;;;18.42;16.67;;;;;;;23.15;100.00;99122.88;5092078;28;20035;-79
2022/07/01 00:07:57;;;;;;;17.25;15.55;;;;;;;23.12;100.00;99132.00;5091926;28;20020;-79
2022/07/01 00:10:23;;;;;;;17.25;15.65;;;;;;;23.04;100.00;99126.66;5073788;28;20376;-79
2022/07/01 00:12:48;;;;;;;19.05;16.30;;;;;;;23.06;100.00;99126.53;5092051;28;20077;-79
2022/07/01 00:15:14;;;;;;;16.30;14.70;;;;;;;23.02;100.00;99133.97;5091618;28;20110;-79
2022/07/01 00:17:39;;;;;;;15.88;14.48;;;;;;;23.02;100.00;99131.31;5092081;28;20024;-78
2022/07/01 00:20:07;;;;;;;15.85;14.00;;;;;;;23.02;100.00;99123.34;5092008;28;20499;-79
2022/07/01 00:22:33;;;;;;;16.88;15.25;;;;;;;22.96;100.00;99110.72;5091912;28;20416;-79
2022/07/01 00:24:59;;;;;;;17.05;15.40;;;;;;;22.99;100.00;99120.19;5091600;28;20081;-79
2022/07/01 00:27:24;;;;;;;17.75;16.05;;;;;;;22.96;100.00;99124.00;5091850;28;20379;-79
2022/07/01 00:29:50;;;;;;;18.02;16.25;;;;;;;22.91;100.00;99124.50;5091749;28;20036;-79
2022/07/01 00:32:15;;;;;;;18.13;16.15;;;;;;;22.90;100.00;99127.31;5092031;28;20024;-79
2022/07/01 00:34:40;;;;;;;18.10;16.30;;;;;;;22.86;100.00;99123.28;5091947;28;20047;-79
2022/07/01 00:37:06;;;;;;;16.80;15.10;;;;;;;22.79;100.00;99124.94;5091489;28;20027;-79
2022/07/01 00:39:33;;;;;;;15.00;13.15;;;;;;;22.78;100.00;99133.91;5091852;28;20035;-79
2022/07/01 00:42:00;;;;;;;15.00;13.65;;;;;;;22.76;100.00;99130.59;5091747;28;20023;-79
2022/07/01 00:44:26;;;;;;;16.73;15.15;;;;;;;22.74;100.00;99136.03;5091512;28;20024;-79
2022/07/01 00:46:51;;;;;;;17.05;15.55;;;;;;;22.73;100.00;99138.88;5091755;28;20024;-78
2022/07/01 00:49:18;;;;;;;18.73;15.13;;;;;;;22.69;100.00;99130.38;5091379;28;20028;-79
2022/07/01 00:51:44;;;;;;;14.85;13.43;;;;;;;22.65;100.00;99142.31;5091963;28;20028;-79
2022/07/01 00:54:10;;;;;;;16.45;14.57;;;;;;;22.64;100.00;99143.31;5090054;28;20070;-79
2022/07/01 00:56:36;;;;;;;15.80;14.40;;;;;;;22.59;100.00;99143.81;5073285;28;20028;-79
2022/07/01 00:59:01;;;;;;;16.45;14.30;;;;;;;22.56;100.00;99148.59;5091228;28;20387;-79
2022/07/01 01:01:27;;;;;;;16.38;14.43;;;;;;;22.52;100.00;99134.00;5073611;28;20020;-79
2022/07/01 01:03:52;;;;;;;13.48;11.95;;;;;;;22.48;100.00;99136.13;5095410;28;20028;-79
2022/07/01 01:06:18;;;;;;;14.63;13.32;;;;;;;22.44;100.00;99131.28;5095310;28;20447;-79
2022/07/01 01:08:45;;;;;;;17.27;13.48;;;;;;;22.45;100.00;99138.25;5095386;28;20034;-79
2022/07/01 01:11:10;;;;;;;15.13;13.27;;;;;;;22.40;100.00;99138.75;5095152;28;20056;-79
2022/07/01 01:13:36;;;;;;;14.73;13.13;;;;;;;22.35;100.00;99147.19;5095145;28;20024;-79
2022/07/01 01:16:01;;;;;;;15.25;12.65;;;;;;;22.31;100.00;99148.50;5095288;28;20039;-79
2022/07/01 01:18:26;;;;;;;14.40;12.65;;;;;;;22.34;100.00;99150.00;5095014;28;20101;-79
2022/07/01 01:20:53;;;;;;;12.65;11.05;;;;;;;22.28;100.00;99151.44;5095172;28;20023;-79
2022/07/01 01:23:18;;;;;;;12.43;11.18;;;;;;;22.24;100.00;99144.78;5094887;28;20028;-78
2022/07/01 01:25:47;;;;;;;18.23;11.82;;;;;;;22.30;100.00;99149.50;5094945;28;20119;-79
2022/07/01 01:28:12;;;;;;;12.55;11.25;;;;;;;22.29;100.00;99146.97;5094962;28;20031;-79
2022/07/01 01:30:38;;;;;;;11.35;10.02;;;;;;;22.27;100.00;99141.84;5095138;28;20028;-79
2022/07/01 01:33:03;;;;;;;13.45;10.23;;;;;;;22.30;100.00;99141.53;5094859;28;20056;-79
2022/07/01 01:35:29;;;;;;;13.63;10.40;;;;;;;22.24;100.00;99136.00;5076721;28;20032;-79
2022/07/01 01:37:54;;;;;;;13.75;10.65;;;;;;;22.31;100.00;99142.34;5094875;28;20048;-79
2022/07/01 01:40:20;;;;;;;13.35;10.35;;;;;;;22.32;100.00;99144.84;5094776;28;20028;-79
2022/07/01 01:42:46;;;;;;;11.32;10.05;;;;;;;22.28;100.00;99145.31;5093313;28;20028;-78
2022/07/01 01:45:12;;;;;;;11.80;9.73;;;;;;;22.25;100.00;99143.84;5094519;28;20031;-79
2022/07/01 01:47:38;;;;;;;9.85;8.80;;;;;;;22.24;100.00;99139.50;5094748;28;20059;-79
2022/07/01 01:50:06;;;;;;;10.50;8.73;;;;;;;22.26;100.00;99134.88;5094528;28;20038;-79
2022/07/01 01:52:32;;;;;;;11.05;8.98;;;;;;;22.28;100.00;99146.16;5093187;28;20020;-79
2022/07/01 01:54:57;;;;;;;14.90;9.32;;;;;;;22.27;100.00;99143.66;5094577;28;20494;-79
2022/07/01 01:57:22;;;;;;;11.27;7.97;;;;;;;22.39;100.00;99153.00;5075902;28;20031;-79
2022/07/01 01:59:48;;;;;;;10.35;8.93;;;;;;;22.41;100.00;99148.34;5094303;28;20039;-79
2022/07/01 02:02:13;;;;;;;12.18;7.80;;;;;;;22.40;100.00;99134.25;5076075;28;20032;-79
2022/07/01 02:04:39;;;;;;;11.35;7.95;;;;;;;22.38;100.00;99143.38;5092925;28;20036;-78
2022/07/01 02:07:04;;;;;;;12.57;7.82;;;;;;;22.36;100.00;99135.56;5094303;28;20634;-79
2022/07/01 02:09:30;;;;;;;11.45;8.10;;;;;;;22.35;100.00;99131.25;5094339;28;20036;-79
2022/07/01 02:11:55;;;;;;;10.02;8.20;;;;;;;22.32;100.00;99122.78;5092752;28;20043;-79
2022/07/01 02:14:21;;;;;;;10.45;7.80;;;;;;;22.34;100.00;99123.47;5093229;28;20435;-79
2022/07/01 02:16:47;;;;;;;12.07;8.10;;;;;;;22.30;100.00;99116.81;5076122;28;20048;-79
2022/07/01 02:19:13;;;;;;;10.05;7.70;;;;;;;22.33;100.00;99127.09;5093867;28;20020;-79
2022/07/01 02:21:38;;;;;;;8.88;7.97;;;;;;;22.28;100.00;99116.97;5075937;28;20483;-79
2022/07/01 02:24:04;;;;;;;10.50;8.07;;;;;;;22.31;100.00;99123.78;5094109;28;20079;-80
2022/07/01 02:26:29;;;;;;;12.13;8.60;;;;;;;22.30;100.00;99122.13;5075400;28;20078;-80
2022/07/01 02:28:55;;;;;;;12.35;8.85;;;;;;;22.28;100.00;99122.28;5092839;28;20031;-80
2022/07/01 02:31:20;;;;;;;10.68;7.82;;;;;;;22.24;100.00;99122.75;5093691;28;20024;-80
2022/07/01 02:33:46;;;;;;;11.05;8.18;;;;;;;22.26;100.00;99126.09;5075652;28;20118;-80
2022/07/01 02:36:11;;;;;;;10.18;8.40;;;;;;;22.23;100.00;99129.88;5093519;28;20027;-80
2022/07/01 02:38:36;;;;;;;10.75;8.55;;;;;;;22.23;100.00;99123.75;5093637;28;20028;-80
2022/07/01 02:41:02;;;;;;;10.45;7.68;;;;;;;22.15;100.00;99124.53;5093424;28;20016;-80
2022/07/01 02:43:27;;;;;;;14.63;8.23;;;;;;;22.14;100.00;99125.53;5092261;28;20040;-80
2022/07/01 02:45:53;;;;;;;10.30;8.48;;;;;;;22.08;100.00;99136.72;5093491;28;20020;-80
2022/07/01 02:48:18;;;;;;;10.55;7.97;;;;;;;22.05;100.00;99132.56;5093552;28;20081;-80
2022/07/01 02:50:44;;;;;;;13.05;8.15;;;;;;;21.97;100.00;99124.56;5093696;28;20046;-80
2022/07/01 02:53:09;;;;;;;11.13;8.07;;;;;;;21.88;100.00;99113.09;5093094;28;20038;-80
2022/07/01 02:55:34;;;;;;;11.43;8.77;;;;;;;21.83;100.00;99120.69;5091875;28;20028;-80
2022/07/01 02:58:00;;;;;;;13.55;9.32;;;;;;;21.81;100.00;99113.88;5093435;28;20597;-80
2022/07/01 03:00:26;;;;;;;11.40;9.10;;;;;;;21.84;100.00;99121.53;5093123;28;20501;-80
2022/07/01 03:02:51;;;;;;;14.68;8.25;;;;;;;21.79;100.00;99121.16;5093409;28;20032;-80
2022/07/01 03:05:16;;;;;;;9.07;8.07;;;;;;;21.89;100.00;99124.53;5092867;28;20040;-80
2022/07/01 03:07:42;;;;;;;9.85;8.48;;;;;;;21.92;100.00;99129.53;5091755;28;20364;-80
2022/07/01 03:10:09;;;;;;;9.55;7.82;;;;;;;21.93;100.00;99117.94;5074593;28;20558;-80
2022/07/01 03:12:34;;;;;;;9.82;8.40;;;;;;;21.98;100.00;99118.28;5070057;28;20040;-79
2022/07/01 03:15:18;;;;;;;9.52;7.50;;;;;;;22.03;100.00;99131.06;5070169;28;20143;-80
2022/07/01 03:17:45;;;;;;;9.02;7.75;;;;;;;22.06;100.00;99123.63;5053587;28;20055;-80
2022/07/01 03:20:13;;;;;;;11.27;7.75;;;;;;;22.10;100.00;99126.81;5069912;28;20040;-80
2022/07/01 03:22:39;;;;;;;9.95;8.07;;;;;;;22.17;100.00;99131.34;5069956;28;20045;-80
2022/07/01 03:25:06;;;;;;;10.27;7.55;;;;;;;22.30;98.92;99141.53;5069932;28;20115;-80
2022/07/01 03:27:32;;;;;;;10.55;7.22;;;;;;;22.40;97.55;99133.44;5069379;28;20090;-79
2022/07/01 03:29:58;;;;;;;15.18;8.73;;;;;;;22.47;97.36;99125.69;5069931;28;20124;-80
2022/07/01 03:32:23;;;;;;;11.18;9.02;;;;;;;22.48;97.71;99120.19;5069801;28;20120;-80
2022/07/01 03:34:51;;;;;;;10.93;8.57;;;;;;;22.59;97.04;99121.75;5053210;28;20127;-80
2022/07/01 03:37:17;;;;;;;13.73;8.98;;;;;;;22.67;96.72;99135.03;5069556;28;20036;-80
2022/07/01 03:39:43;;;;;;;12.77;8.70;;;;;;;22.68;97.28;99126.09;5053207;28;20052;-80
2022/07/01 03:42:09;;;;;;;13.18;7.65;;;;;;;22.77;97.47;99141.03;5069988;28;20114;-80
2022/07/01 03:44:36;;;;;;;11.75;9.00;;;;;;;22.79;97.95;99139.03;5088130;28;20114;-79
2022/07/01 03:47:02;;;;;;;11.32;8.90;;;;;;;22.84;98.21;99150.03;5072888;28;20479;-80
2022/07/01 03:49:28;;;;;;;15.07;8.35;;;;;;;22.91;98.25;99144.91;5089799;28;20046;-80
2022/07/01 03:51:54;;;;;;;13.45;9.30;;;;;;;22.96;97.65;99137.28;5072700;28;20586;-80
2022/07/01 03:54:38;;;;;;;9.98;8.50;;;;;;;22.98;98.41;99130.00;5089471;28;20061;-80
2022/07/01 03:57:08;;;;;;;10.65;8.60;;;;;;;22.96;99.09;99124.00;5089670;28;20063;-80
2022/07/01 03:59:38;;;;;;;13.85;9.88;;;;;;;23.00;98.72;99146.56;5089432;28;20097;-80
2022/07/01 04:02:04;;;;;;;13.23;10.15;;;;;;;23.02;99.30;99141.94;5089764;28;20036;-79
2022/07/01 04:04:30;;;;;;;12.35;9.75;;;;;;;23.08;99.22;99133.31;5089333;28;20036;-80
2022/07/01 04:06:58;;;;;;;12.32;9.60;;;;;;;23.21;99.73;99146.13;5089750;28;20113;-79
2022/07/01 04:09:24;;;;;;;14.05;8.50;;;;;;;23.38;99.39;99144.28;5073607;28;20403;-80
2022/07/01 04:11:51;;;;;;;11.27;8.95;;;;;;;23.56;99.29;99149.47;5090592;28;20052;-80
2022/07/01 04:14:17;;;;;;;9.65;8.75;;;;;;;23.86;98.17;99151.47;5092064;28;20128;-80
2022/07/01 04:16:43;;;;;;;12.57;9.00;;;;;;;24.42;96.19;99148.84;5092025;28;20506;-80
2022/07/01 04:19:09;;;;;;;14.43;9.52;;;;;;;25.01;93.21;99151.03;5092415;28;20107;-80
2022/07/01 04:24:20;;;;;;;14.90;9.70;;;;;;;25.95;87.78;99147.13;5091923;28;20047;-80
2022/07/01 04:26:45;;;;;;;12.85;9.68;;;;;;;25.98;85.22;99135.28;5073963;28;20024;-80
2022/07/01 04:29:11;;;;;;;12.88;9.80;;;;;;;26.43;84.32;99146.78;5091892;28;20052;-80
2022/07/01 04:31:37;;;;;;;16.45;10.05;;;;;;;26.87;82.15;99155.56;5091622;28;20028;-80
2022/07/01 04:34:04;;;;;;;16.35;9.88;;;;;;;27.38;80.16;99146.66;5091817;28;20024;-80
2022/07/01 04:36:30;;;;;;;16.10;10.98;;;;;;;26.94;80.60;99152.97;5091843;28;20064;-80
2022/07/01 04:38:56;;;;;;;16.23;10.55;;;;;;;26.54;81.91;99152.50;5077798;28;20487;-80
2022/07/01 04:44:05;;;;;;;13.07;10.48;;;;;;;26.67;82.14;99157.16;5096143;28;20039;-80
2022/07/01 04:46:31;;;;;;;15.30;11.50;;;;;;;26.65;83.06;99151.22;5095864;28;20028;-79
2022/07/01 04:48:56;;;;;;;13.52;10.30;;;;;;;27.03;82.19;99149.16;5095872;28;20055;-80
2022/07/01 04:51:22;;;;;;;22.02;11.20;;;;;;;27.24;81.07;99140.34;5095655;28;20028;-80
2022/07/01 04:53:48;;;;;;;14.07;11.25;;;;;;;27.95;78.20;99147.56;5096161;28;20020;-80
2022/07/01 04:56:14;;;;;;;14.52;11.50;;;;;;;28.38;77.35;99140.22;5095811;28;20039;-79
2022/07/01 04:58:39;;;;;;;16.95;13.75;;;;;;;28.60;75.07;99147.09;5095469;28;20036;-80
2022/07/01 05:01:05;;;;;;;12.77;10.95;;;;;;;28.74;75.80;99144.50;5095860;28;20032;-79
2022/07/01 05:03:30;;;;;;;16.02;11.52;;;;;;;28.25;77.14;99145.47;5095469;28;20514;-80
2022/07/01 05:05:56;;;;;;;18.10;12.77;;;;;;;27.66;78.57;99149.38;5095542;28;20109;-79
2022/07/01 05:08:22;;;;;;;17.77;11.80;;;;;;;27.19;81.11;99152.66;5095109;28;20378;-80
2022/07/01 05:10:47;;;;;;;20.23;14.27;;;;;;;27.06;81.84;99156.81;5095346;28;20074;-79
2022/07/01 05:13:12;;;;;;;15.10;13.57;;;;;;;27.39;80.55;99134.97;5095277;28;20028;-80
2022/07/01 05:15:38;;;;;;;15.93;12.85;;;;;;;28.47;77.53;99132.81;5094994;28;20032;-80
2022/07/01 05:23:31;;;;;;;16.92;12.93;;;;;;;29.85;70.53;99139.50;5095103;28;20086;-80
2022/07/01 05:25:57;;;;;;;15.48;13.10;;;;;;;29.80;71.96;99136.63;5095050;28;20421;-79
2022/07/01 05:28:22;;;;;;;14.32;12.32;;;;;;;30.08;69.72;99133.66;5095019;28;20103;-80
2022/07/01 05:30:47;;;;;;;14.43;12.57;;;;;;;30.33;69.89;99137.34;5095390;28;20032;-80
2022/07/01 05:33:13;;;;;;;14.40;12.15;;;;;;;30.30;70.10;99134.28;5095056;28;20043;-80
2022/07/01 05:35:38;;;;;;;20.02;14.43;;;;;;;30.51;68.49;99142.06;5094737;28;20118;-80
2022/07/01 05:38:03;;;;;;;15.95;14.05;;;;;;;30.22;69.36;99138.03;5094852;28;20024;-80
2022/07/01 05:40:29;;;;;;;15.82;13.60;;;;;;;30.22;69.15;99142.56;5094472;28;20122;-79
2022/07/01 05:42:55;;;;;;;15.23;11.07;;;;;;;30.60;69.61;99139.13;5093638;28;20032;-80
2022/07/01 05:45:20;;;;;;;16.15;12.90;;;;;;;30.49;69.13;99146.81;5076374;28;20032;-79
2022/07/01 05:47:46;;;;;;;16.02;11.27;;;;;;;30.60;70.19;99136.44;5110306;28;20059;-79
2022/07/01 05:50:11;;;;;;;17.65;12.93;;;;;;;30.92;67.43;99145.41;5093634;28;20589;-80
2022/07/01 05:52:36;;;;;;;14.82;12.07;;;;;;;30.97;68.43;99148.25;5094533;28;20391;-80
2022/07/01 05:55:02;;;;;;;17.42;13.80;;;;;;;30.90;67.66;99152.88;5094687;28;20067;-80
2022/07/01 05:57:28;;;;;;;12.77;11.38;;;;;;;31.08;67.87;99154.81;5094154;28;20024;-79
2022/07/01 05:59:53;;;;;;;13.27;11.00;;;;;;;31.50;67.32;99151.44;5094496;28;20106;-79
2022/07/01 06:02:19;;;;;;;16.65;11.23;;;;;;;31.77;65.43;99145.81;5094476;28;20082;-79
2022/07/01 06:04:44;;;;;;;18.95;12.23;;;;;;;32.04;63.75;99149.97;5075866;28;20135;-79
2022/07/01 06:07:12;;;;;;;17.92;11.27;;;;;;;32.15;64.38;99152.94;5093889;28;20048;-79
2022/07/01 06:09:38;;;;;;;12.27;10.52;;;;;;;32.61;63.50;99152.44;5076120;28;20426;-79
2022/07/01 06:12:04;;;;;;;13.98;10.57;;;;;;;32.41;62.84;99144.63;5076126;28;20059;-79
2022/07/01 06:14:30;;;;;;;12.70;10.77;;;;;;;32.38;63.64;99136.97;5094150;28;20023;-79
2022/07/01 06:16:55;;;;;;;12.38;10.63;;;;;;;32.58;62.92;99141.31;5094004;28;20077;-79
2022/07/01 06:19:21;;;;;;;12.70;11.07;;;;;;;33.33;61.14;99127.38;5093859;28;20099;-79
2022/07/01 06:21:47;;;;;;;13.38;10.50;;;;;;;33.96;60.08;99127.63;5093907;28;20088;-80
2022/07/01 06:24:12;;;;;;;12.75;10.23;;;;;;;34.49;58.52;99120.38;5093876;28;20024;-79
2022/07/01 06:26:38;;;;;;;15.25;11.23;;;;;;;35.04;56.46;99118.97;5093720;28;20058;-80
2022/07/01 06:29:03;;;;;;;11.50;10.40;;;;;;;36.37;52.70;99125.38;5093961;28;20024;-79
2022/07/01 06:31:29;;;;;;;14.98;9.98;;;;;;;38.30;45.08;99138.19;5093752;28;20032;-80
2022/07/01 06:33:55;;;;;;;12.93;10.13;;;;;;;40.43;38.66;99150.34;5093861;28;20035;-80
2022/07/01 06:36:20;;;;;;;12.88;10.70;;;;;;;41.81;34.37;99155.75;5094018;28;20068;-80
2022/07/01 06:38:46;;;;;;;13.10;9.43;;;;;;;43.31;32.00;99143.41;5093452;28;20020;-80
2022/07/01 06:41:26;;;;;;;10.85;9.75;;;;;;;45.05;28.42;99134.53;5093687;28;20032;-80
2022/07/01 06:43:59;;;;;;;9.82;8.88;;;;;;;46.55;26.28;99144.78;5093735;28;20024;-80
2022/07/01 06:46:26;;;;;;;12.65;8.63;;;;;;;47.85;24.09;99152.19;5093296;28;20081;-80
2022/07/01 06:48:52;;;;;;;10.18;9.02;;;;;;;48.66;22.62;99151.13;5093490;28;20081;-80
2022/07/01 06:51:17;;;;;;;11.88;9.10;;;;;;;49.53;22.17;99131.81;5093412;28;20437;-80
2022/07/01 06:53:44;;;;;;;12.93;8.55;;;;;;;50.74;20.20;99131.31;5093383;28;20016;-81
2022/07/01 06:56:11;;;;;;;10.35;8.20;;;;;;;51.64;19.38;99138.22;5093552;28;20093;-80
2022/07/01 06:58:37;;;;;;;11.00;8.23;;;;;;;52.02;18.73;99145.94;5093089;28;20099;-81
2022/07/01 07:01:03;;;;;;;9.65;7.22;;;;;;;52.45;17.84;99138.59;5074732;28;20022;-81
2022/07/01 07:03:28;;;;;;;11.55;7.72;;;;;;;52.69;17.61;99136.75;5092751;28;20035;-81
2022/07/01 07:05:54;;;;;;;11.00;8.23;;;;;;;52.83;17.84;99135.03;5093309;28;20109;-81
2022/07/01 07:08:19;;;;;;;11.90;7.72;;;;;;;53.33;17.01;99138.84;5093281;28;20395;-81
2022/07/01 07:10:45;;;;;;;8.55;7.50;;;;;;;53.88;16.51;99121.91;5092953;28;20044;-81
2022/07/01 07:13:10;;;;;;;10.30;7.50;;;;;;;54.51;15.62;99126.84;5093209;28;20016;-81
2022/07/01 07:15:36;;;;;;;8.70;7.35;;;;;;;54.76;15.23;99131.91;5093131;28;20035;-81
2022/07/01 07:18:01;;;;;;;11.13;7.47;;;;;;;55.32;15.03;99122.59;5092893;28;20035;-81
2022/07/01 07:20:27;;;;;;;13.25;7.60;;;;;;;55.60;15.24;99118.47;5092936;28;20058;-81
2022/07/01 07:22:53;;;;;;;14.40;7.63;;;;;;;55.64;14.56;99120.09;5093077;28;20028;-81
2022/07/01 07:25:19;;;;;;;11.23;7.63;;;;;;;55.86;14.10;99118.28;5092934;28;20032;-81
2022/07/01 07:27:46;;;;;;;8.55;7.43;;;;;;;56.28;13.77;99122.56;5092693;28;20030;-81
2022/07/01 07:30:14;;;;;;;9.77;7.50;;;;;;;56.44;13.48;99108.28;5092903;28;20035;-81
2022/07/01 07:32:40;;;;;;;7.88;6.95;;;;;;;56.25;13.69;99107.38;5092562;28;20016;-81
2022/07/01 07:35:06;;;;;;;8.93;6.90;;;;;;;56.86;13.15;99123.66;5092103;28;20085;-81
2022/07/01 07:37:36;;;;;;;10.15;7.50;;;;;;;57.38;12.21;99122.19;5090692;28;20028;-81
2022/07/01 07:40:06;;;;;;;8.50;7.10;;;;;;;57.52;11.95;99117.78;5092561;28;20477;-81
2022/07/01 07:42:32;;;;;;;8.52;6.75;;;;;;;57.49;12.58;99117.38;5073891;28;20020;-80
2022/07/01 07:44:57;;;;;;;8.98;7.00;;;;;;;57.56;12.20;99116.56;5092262;28;20081;-80
2022/07/01 07:47:22;;;;;;;7.88;6.53;;;;;;;57.85;11.82;99114.56;5091829;28;20028;-80
2022/07/01 07:49:48;;;;;;;10.88;6.78;;;;;;;57.82;12.12;99118.16;5092222;28;20081;-81
2022/07/01 07:52:13;;;;;;;9.43;6.75;;;;;;;57.68;12.26;99121.00;5092229;28;20016;-80
2022/07/01 07:54:39;;;;;;;8.20;6.90;;;;;;;57.57;11.72;99126.59;5091979;28;20024;-80
2022/07/01 07:57:05;;;;;;;7.13;6.40;;;;;;;57.57;12.38;99122.97;5091950;28;20463;-81
2022/07/01 07:59:30;;;;;;;8.85;6.13;;;;;;;57.76;11.16;99119.78;5091885;28;20054;-81
2022/07/01 08:01:56;;;;;;;10.15;7.05;;;;;;;58.02;12.15;99128.97;5091667;28;20064;-79
2022/07/01 08:04:22;;;;;;;7.57;6.63;;;;;;;57.85;11.88;99127.78;5091727;28;20070;-79
2022/07/01 08:06:47;;;;;;;11.27;7.00;;;;;;;56.44;12.77;99120.28;5091588;28;20051;-80
2022/07/01 08:09:13;;;;;;;11.25;7.55;;;;;;;56.32;13.17;99115.00;5091574;28;20035;-79
2022/07/01 08:11:38;;;;;;;15.90;8.65;;;;;;;53.66;14.46;99109.59;5089583;28;20052;-79
2022/07/01 08:14:04;;;;;;;9.45;6.90;;;;;;;51.24;17.04;99113.34;5091874;28;20521;-79
2022/07/01 08:16:30;;;;;;;10.15;7.22;;;;;;;49.12;18.44;99100.34;5091245;28;20517;-79
2022/07/01 08:18:55;;;;;;;12.70;8.00;;;;;;;45.66;21.78;99104.66;5073487;28;20024;-79
2022/07/01 08:21:21;;;;;;;10.23;7.72;;;;;;;42.80;25.97;99092.13;5091353;28;20036;-78
2022/07/01 08:23:46;;;;;;;12.00;8.45;;;;;;;41.82;27.22;99102.66;5091502;28;20097;-78
2022/07/01 08:26:14;;;;;;;12.13;8.23;;;;;;;40.95;29.36;99108.00;5091742;28;20032;-81
2022/07/01 08:28:39;;;;;;;17.50;9.95;;;;;;;39.97;30.70;99103.28;5091509;28;20078;-81
2022/07/01 08:31:04;;;;;;;10.90;8.88;;;;;;;39.14;32.62;99107.16;5091317;28;20472;-81
2022/07/01 08:33:30;;;;;;;10.77;8.40;;;;;;;38.87;33.04;99097.34;5073485;28;20020;-81
2022/07/01 08:35:55;;;;;;;11.82;8.68;;;;;;;38.62;32.97;99086.38;5073514;28;20028;-81
2022/07/01 08:38:21;;;;;;;11.88;8.32;;;;;;;38.31;34.15;99094.44;5091753;28;20035;-81
2022/07/01 08:40:46;;;;;;;12.48;8.27;;;;;;;38.19;34.93;99105.53;5091549;28;20025;-81
2022/07/01 08:43:12;;;;;;;11.57;8.48;;;;;;;37.72;34.37;99102.81;5091908;28;20024;-81
2022/07/01 08:45:37;;;;;;;11.10;9.07;;;;;;;37.42;35.09;99095.25;5091676;28;20024;-81
2022/07/01 08:48:04;;;;;;;11.25;8.43;;;;;;;37.38;35.69;99113.97;5092368;28;20089;-81
2022/07/01 08:50:31;;;;;;;12.90;8.65;;;;;;;37.39;35.91;99103.91;5073867;28;20463;-81
2022/07/01 08:52:57;;;;;;;13.02;8.05;;;;;;;37.63;36.53;99110.66;5091828;28;20024;-81
2022/07/01 08:55:24;;;;;;;12.60;9.23;;;;;;;37.63;35.83;99107.09;5091579;28;20028;-81
2022/07/01 08:57:50;;;;;;;10.13;9.13;;;;;;;37.48;35.44;99107.00;5073359;28;20384;-81
2022/07/01 09:00:16;;;;;;;14.48;9.40;;;;;;;36.92;36.58;99112.72;5091731;28;20035;-81
2022/07/01 09:03:03;;;;;;;11.45;9.38;;;;;;;37.19;36.69;99113.53;5091479;28;20078;-81
2022/07/01 09:05:30;;;;;;;12.98;9.32;;;;;;;37.31;36.70;99113.34;5091712;28;20036;-81
2022/07/01 09:07:57;;;;;;;12.82;9.48;;;;;;;37.10;37.98;99108.81;5091311;28;20032;-81
2022/07/01 09:10:23;;;;;;;14.10;9.60;;;;;;;36.94;38.67;99107.88;5091530;28;20460;-80
2022/07/01 09:12:49;;;;;;;10.30;8.68;;;;;;;36.85;38.98;99112.09;5091328;28;20032;-81
2022/07/01 09:15:24;;;;;;;14.45;10.18;;;;;;;36.65;39.34;99110.78;5091622;28;20032;-80
2022/07/01 09:17:50;;;;;;;12.02;9.13;;;;;;;36.47;39.47;99097.59;5091401;28;20085;-81
2022/07/01 09:20:27;;;;;;;12.63;9.98;;;;;;;36.72;40.04;99111.41;5091865;28;20028;-80
2022/07/01 09:23:00;;;;;;;12.35;9.70;;;;;;;36.87;39.18;99099.06;5091897;28;20035;-80
2022/07/01 09:25:31;;;;;;;18.38;9.80;;;;;;;36.89;39.47;99100.47;5095047;28;20137;-81
2022/07/01 09:28:06;;;;;;;12.20;9.65;;;;;;;36.69;43.80;99097.53;5095086;28;20020;-78
2022/07/01 09:30:32;;;;;;;19.23;11.90;;;;;;;36.31;40.20;99091.13;5095241;28;20107;-78
2022/07/01 09:33:08;;;;;;;17.17;10.50;;;;;;;35.78;43.83;99073.63;5094927;28;20028;-78
2022/07/01 09:35:35;;;;;;;14.73;10.68;;;;;;;35.76;43.66;99070.31;5094827;28;20501;-78
2022/07/01 09:38:02;;;;;;;11.35;10.10;;;;;;;35.76;44.80;99072.22;5095175;28;20053;-78
2022/07/01 09:40:47;;;;;;;13.43;10.23;;;;;;;35.84;44.54;99080.72;5094970;28;20412;-78
2022/07/01 09:43:15;;;;;;;11.45;10.25;;;;;;;35.86;44.34;99084.03;5094894;28;20024;-78
2022/07/01 09:46:05;;;;;;;11.68;10.38;;;;;;;35.90;44.76;99081.63;5094534;28;20636;-78
2022/07/01 09:48:34;;;;;;;12.20;10.90;;;;;;;35.71;42.51;99067.56;5094696;28;20467;-78
2022/07/01 09:51:00;;;;;;;11.80;10.57;;;;;;;35.38;44.08;99068.38;5094610;28;20033;-78
2022/07/01 09:53:26;;;;;;;11.90;10.73;;;;;;;35.27;45.10;99064.72;5094734;28;20031;-78
2022/07/01 09:55:52;;;;;;;12.45;10.75;;;;;;;35.08;43.87;99066.81;5094395;28;20035;-78
2022/07/01 09:58:17;;;;;;;19.38;10.70;;;;;;;35.03;44.31;99066.75;5094521;28;20491;-78
2022/07/01 10:00:43;;;;;;;12.93;10.68;;;;;;;34.93;44.51;99061.97;5094190;28;20054;-78
2022/07/01 10:03:09;;;;;;;11.95;10.73;;;;;;;34.93;45.93;99067.38;5094647;28;20069;-78
2022/07/01 10:05:47;;;;;;;12.48;10.75;;;;;;;34.96;46.28;99066.03;5094517;28;20032;-78
2022/07/01 10:08:37;;;;;;;13.05;9.85;;;;;;;35.05;46.74;99061.06;5094414;28;20016;-79
2022/07/01 10:11:18;;;;;;;13.20;10.43;;;;;;;35.36;46.46;99065.13;5093952;28;20040;-78
2022/07/01 10:13:44;;;;;;;13.23;11.00;;;;;;;35.55;44.50;99062.97;5090470;28;20042;-78
2022/07/01 10:16:11;;;;;;;11.57;10.20;;;;;;;35.64;44.73;99059.59;5093543;28;20032;-79
2022/07/01 10:18:36;;;;;;;13.50;11.38;;;;;;;35.74;43.67;99059.75;5093480;28;20031;-78
2022/07/01 10:21:03;;;;;;;13.93;11.00;;;;;;;35.72;43.07;99061.88;5093077;28;20024;-78
2022/07/01 10:23:40;;;;;;;12.73;11.43;;;;;;;35.66;43.13;99065.59;5093322;28;20024;-78
2022/07/01 10:26:07;;;;;;;14.02;10.50;;;;;;;35.59;43.82;99054.09;5090915;28;20024;-78
2022/07/01 10:28:42;;;;;;;12.75;9.85;;;;;;;35.67;43.72;99053.69;5093550;28;20024;-78
2022/07/01 10:31:17;;;;;;;11.13;9.40;;;;;;;35.89;43.31;99052.88;5091561;28;20039;-79
2022/07/01 10:33:45;;;;;;;12.80;9.93;;;;;;;36.02;42.54;99052.53;5093523;28;20036;-78
2022/07/01 10:36:22;;;;;;;11.88;9.63;;;;;;;36.21;42.58;99048.44;5092953;28;20028;-78
2022/07/01 10:39:00;;;;;;;13.82;10.50;;;;;;;36.30;40.79;99039.88;5093770;28;20032;-78
2022/07/01 10:41:26;;;;;;;15.85;10.38;;;;;;;35.95;41.31;99027.50;5093824;28;20111;-78
2022/07/01 10:43:54;;;;;;;10.13;9.13;;;;;;;35.74;42.39;99027.25;5093417;28;20055;-78
2022/07/01 10:46:44;;;;;;;16.77;10.50;;;;;;;35.78;43.32;99035.69;5074199;28;20070;-78
2022/07/01 10:49:14;;;;;;;11.15;10.00;;;;;;;35.80;43.67;99030.00;5089647;28;20024;-78
2022/07/01 10:51:49;;;;;;;11.27;10.07;;;;;;;35.72;42.35;99037.50;5091754;28;20427;-78
2022/07/01 10:54:36;;;;;;;15.27;9.90;;;;;;;35.59;43.48;99056.00;5090078;28;20384;-78
2022/07/01 10:57:19;;;;;;;14.40;9.65;;;;;;;35.44;40.23;99053.84;5072487;28;20360;-78
2022/07/01 10:59:54;;;;;;;12.25;9.63;;;;;;;35.07;42.44;99065.19;5091307;28;20024;-78
2022/07/01 11:02:33;;;;;;;15.90;10.80;;;;;;;34.84;42.96;99066.09;5092009;28;20028;-78
2022/07/01 11:05:17;;;;;;;;;;;;;;;34.84;44.26;99074.22;5091139;28;20034;-78
2022/07/01 11:07:45;;;;;;;14.07;9.63;;;;;;;34.99;44.48;99068.31;5090693;28;20328;-79
2022/07/01 11:10:12;;;;;;;15.00;9.80;;;;;;;35.06;44.98;99060.84;5089162;28;20024;-78
2022/07/01 11:12:38;;;;;;;10.10;9.10;;;;;;;35.01;44.06;99044.50;5091888;28;20028;-78
2022/07/01 11:15:05;;;;;;;13.18;9.40;;;;;;;35.13;44.36;99039.03;5073092;28;20536;-78
2022/07/01 11:17:32;;;;;;;9.68;8.50;;;;;;;35.22;43.76;99043.78;5091607;28;20424;-79
2022/07/01 11:20:01;;;;;;;10.32;8.93;;;;;;;35.18;42.18;99048.03;5091208;28;20682;-79
2022/07/01 11:22:29;;;;;;;14.50;10.20;;;;;;;35.11;41.92;99052.81;5091719;28;20020;-79
2022/07/01 11:24:57;;;;;;;10.30;9.13;;;;;;;34.93;39.99;99040.31;5091393;28;20035;-78
2022/07/01 11:27:24;;;;;;;9.13;8.23;;;;;;;34.64;41.22;99028.72;5091439;28;20016;-79
2022/07/01 11:29:58;;;;;;;8.95;8.15;;;;;;;34.53;43.29;99036.88;5088508;28;20490;-78